createdAt,value
2019-01-10T06:15:20.618Z,252.00
2019-01-10T06:17:20.610Z,256.00
2019-01-10T06:23:42.764Z,260.00
2019-01-10T06:27:42.508Z,264.00
2019-01-10T06:29:42.503Z,264.00
2019-01-10T06:30:42.484Z,260.00
2019-01-10T06:32:42.696Z,260.00
2019-01-10T06:33:42.473Z,256.00
2019-01-10T06:34:42.432Z,260.00
2019-01-10T06:37:42.403Z,256.00
2019-01-10T06:38:42.399Z,264.00
2019-01-10T06:39:42.372Z,264.00
2019-01-10T06:40:42.583Z,264.00
2019-01-10T06:41:42.350Z,264.00
2019-01-10T06:42:42.346Z,264.00
2019-01-10T06:43:42.535Z,264.00
2019-01-10T06:44:44.669Z,264.00
2019-01-10T06:45:42.312Z,260.00
2019-01-10T06:46:42.300Z,260.00
2019-01-10T06:47:42.358Z,260.00
2019-01-10T06:48:42.290Z,260.00
2019-01-10T06:49:42.264Z,260.00
2019-01-10T06:50:42.334Z,260.00
2019-01-10T06:51:42.321Z,260.00
2019-01-10T06:52:42.225Z,260.00
2019-01-10T06:53:42.224Z,260.00
2019-01-10T06:54:42.217Z,260.00
2019-01-10T06:55:42.653Z,264.00
2019-01-10T06:56:42.194Z,264.00
2019-01-10T06:57:42.170Z,264.00
2019-01-10T06:58:42.164Z,264.00
2019-01-10T06:59:42.181Z,264.00
2019-01-10T07:00:42.141Z,264.00
2019-01-10T07:01:42.136Z,264.00
2019-01-10T07:02:42.115Z,264.00
2019-01-10T07:03:42.109Z,264.00
2019-01-10T07:04:42.110Z,260.00
2019-01-10T07:05:42.134Z,260.00
2019-01-10T07:06:42.119Z,260.00
2019-01-10T07:07:42.091Z,260.00
2019-01-10T07:08:42.110Z,260.00
2019-01-10T07:09:42.128Z,260.00
2019-01-10T07:10:43.119Z,264.00
2019-01-10T07:11:42.074Z,264.00
2019-01-10T07:12:42.043Z,264.00
2019-01-10T07:13:42.711Z,264.00
2019-01-10T07:14:42.032Z,264.00
2019-01-10T07:15:42.033Z,264.00
2019-01-10T07:16:42.022Z,264.00
2019-01-10T07:17:42.006Z,260.00
2019-01-10T07:18:42.006Z,264.00
2019-01-10T07:19:41.991Z,264.00
2019-01-10T07:20:41.989Z,264.00
2019-01-10T07:21:41.935Z,264.00
2019-01-10T07:22:41.891Z,264.00
2019-01-10T07:23:41.888Z,264.00
2019-01-10T07:24:41.890Z,268.00
2019-01-10T07:25:41.871Z,268.00
2019-01-10T07:26:41.849Z,268.00
2019-01-10T07:27:41.911Z,268.00
2019-01-10T07:28:41.837Z,268.00
2019-01-10T07:29:41.813Z,276.00
2019-01-10T07:31:03.825Z,276.00
2019-01-10T07:32:03.633Z,276.00
2019-01-10T07:33:03.613Z,280.00
2019-01-10T07:34:03.646Z,276.00
2019-01-10T07:35:03.583Z,276.00
2019-01-10T07:36:03.600Z,280.00
2019-01-10T07:37:12.413Z,280.00
2019-01-10T07:38:25.659Z,284.00
2019-01-10T07:39:25.618Z,284.00
2019-01-10T07:40:25.611Z,284.00
2019-01-10T07:41:25.592Z,288.00
2019-01-10T07:42:25.606Z,292.00
2019-01-10T07:43:25.574Z,296.00
2019-01-10T07:44:25.637Z,296.00
2019-01-10T07:45:25.543Z,300.00
2019-01-10T07:46:25.534Z,304.00
2019-01-10T07:47:25.609Z,304.00
2019-01-10T07:48:25.575Z,304.00
2019-01-10T07:49:25.558Z,304.00
2019-01-10T07:50:25.578Z,304.00
2019-01-10T07:51:25.572Z,304.00
2019-01-10T07:52:25.560Z,308.00
2019-01-10T07:53:25.547Z,308.00
2019-01-10T07:54:28.562Z,308.00
2019-01-10T07:55:25.453Z,308.00
2019-01-10T07:56:25.431Z,312.00
2019-01-10T07:57:25.563Z,316.00
2019-01-10T07:58:25.410Z,320.00
2019-01-10T07:59:25.395Z,328.00
2019-01-10T08:00:25.436Z,328.00
2019-01-10T08:01:25.436Z,332.00
2019-01-10T08:02:25.344Z,332.00
2019-01-10T08:03:25.548Z,332.00
2019-01-10T08:04:25.373Z,332.00
2019-01-10T08:05:25.329Z,336.00
2019-01-10T08:06:25.313Z,340.00
2019-01-10T08:07:25.302Z,348.00
2019-01-10T08:08:29.963Z,352.00
2019-01-10T08:09:25.292Z,360.00
2019-01-10T08:10:25.295Z,364.00
2019-01-10T08:11:25.277Z,368.00
2019-01-10T08:12:26.125Z,376.00
2019-01-10T08:13:25.262Z,384.00
2019-01-10T08:14:25.280Z,388.00
2019-01-10T08:15:25.300Z,392.00
2019-01-10T08:16:25.534Z,404.00
2019-01-10T08:17:25.266Z,412.00
2019-01-10T08:18:25.238Z,416.00
2019-01-10T08:19:26.580Z,420.00
2019-01-10T08:20:25.194Z,424.00
2019-01-10T08:21:25.226Z,428.00
2019-01-10T08:22:27.924Z,436.00
2019-01-10T08:23:25.163Z,452.00
2019-01-10T08:24:25.975Z,456.00
2019-01-10T08:25:25.091Z,472.00
2019-01-10T08:26:27.417Z,484.00
2019-01-10T08:27:25.084Z,496.00
2019-01-10T08:28:25.095Z,508.00
2019-01-10T08:29:25.085Z,516.00
2019-01-10T08:30:25.062Z,528.00
2019-01-10T08:31:25.052Z,536.00
2019-01-10T08:32:25.021Z,536.00
2019-01-10T08:33:25.010Z,532.00
2019-01-10T08:34:24.987Z,540.00
2019-01-10T08:35:24.989Z,556.00
2019-01-10T08:36:32.376Z,576.00
2019-01-10T08:37:46.651Z,584.00
2019-01-10T08:38:46.641Z,576.00
2019-01-10T08:39:46.617Z,556.00
2019-01-10T08:40:46.594Z,556.00
2019-01-10T08:41:46.644Z,560.00
2019-01-10T08:42:46.594Z,572.00
2019-01-10T08:43:46.570Z,588.00
2019-01-10T08:44:48.863Z,600.00
2019-01-10T08:45:46.625Z,608.00
2019-01-10T08:46:46.553Z,616.00
2019-01-10T08:47:46.519Z,624.00
2019-01-10T08:48:46.568Z,632.00
2019-01-10T08:49:46.583Z,640.00
2019-01-10T08:50:46.578Z,648.00
2019-01-10T08:51:49.552Z,660.00
2019-01-10T08:53:11.979Z,668.00
2019-01-10T08:54:11.714Z,664.00
2019-01-10T08:55:11.673Z,652.00
2019-01-10T08:56:11.681Z,648.00
2019-01-10T08:57:11.654Z,640.00
2019-01-10T08:58:11.626Z,640.00
2019-01-10T08:59:11.913Z,640.00
2019-01-10T09:00:11.665Z,644.00
2019-01-10T09:01:11.628Z,636.00
2019-01-10T09:02:14.602Z,632.00
2019-01-10T09:03:11.601Z,628.00
2019-01-10T09:04:11.553Z,628.00
2019-01-10T09:05:12.352Z,636.00
2019-01-10T09:06:11.566Z,636.00
2019-01-10T09:07:11.548Z,644.00
2019-01-10T09:08:11.538Z,656.00
2019-01-10T09:09:11.560Z,676.00
2019-01-10T09:10:14.497Z,684.00
2019-01-10T09:11:11.709Z,692.00
2019-01-10T09:12:11.520Z,688.00
2019-01-10T09:13:11.501Z,692.00
2019-01-10T09:14:11.495Z,696.00
2019-01-10T09:15:11.465Z,680.00
2019-01-10T09:16:11.724Z,680.00
2019-01-10T09:17:14.432Z,676.00
2019-01-10T09:18:11.486Z,672.00
2019-01-10T09:19:11.418Z,672.00
2019-01-10T09:20:11.402Z,680.00
2019-01-10T09:21:11.410Z,684.00
2019-01-10T09:22:11.321Z,688.00
2019-01-10T09:23:11.353Z,680.00
2019-01-10T09:24:11.329Z,680.00
2019-01-10T09:25:11.273Z,688.00
2019-01-10T09:26:11.282Z,700.00
2019-01-10T09:27:11.250Z,716.00
2019-01-10T09:28:11.234Z,728.00
2019-01-10T09:29:11.219Z,732.00
2019-01-10T09:30:11.234Z,748.00
2019-01-10T09:31:11.199Z,760.00
2019-01-10T09:32:11.186Z,780.00
2019-01-10T09:33:11.190Z,788.00
2019-01-10T09:34:11.193Z,784.00
2019-01-10T09:35:11.161Z,780.00
2019-01-10T09:36:11.155Z,764.00
2019-01-10T09:37:11.131Z,760.00
2019-01-10T09:38:11.227Z,756.00
2019-01-10T09:39:11.105Z,748.00
2019-01-10T09:40:11.144Z,732.00
2019-01-10T09:41:11.082Z,724.00
2019-01-10T09:42:11.078Z,732.00
2019-01-10T09:43:11.066Z,740.00
2019-01-10T09:44:11.064Z,752.00
2019-01-10T09:45:11.045Z,756.00
2019-01-10T09:46:11.017Z,760.00
2019-01-10T09:47:11.022Z,768.00
2019-01-10T09:48:11.021Z,776.00
2019-01-10T09:49:11.004Z,772.00
2019-01-10T09:50:10.986Z,772.00
2019-01-10T09:51:11.015Z,780.00
2019-01-10T09:52:11.047Z,780.00
2019-01-10T09:53:11.018Z,788.00
2019-01-10T09:54:10.938Z,804.00
2019-01-10T09:55:10.938Z,824.00
2019-01-10T09:56:10.927Z,840.00
2019-01-10T09:57:10.941Z,832.00
2019-01-10T09:58:10.938Z,832.00
2019-01-10T09:59:10.891Z,836.00
2019-01-10T10:00:10.914Z,844.00
2019-01-10T10:01:10.941Z,860.00
2019-01-10T10:02:10.902Z,876.00
2019-01-10T10:03:10.871Z,884.00
2019-01-10T10:04:10.957Z,884.00
2019-01-10T10:05:10.849Z,884.00
2019-01-10T10:06:13.002Z,880.00
2019-01-10T10:07:10.829Z,860.00
2019-01-10T10:08:10.838Z,840.00
2019-01-10T10:09:13.361Z,840.00
2019-01-10T10:10:15.470Z,872.00
2019-01-10T10:11:10.766Z,896.00
2019-01-10T10:12:10.773Z,900.00
2019-01-10T10:13:10.781Z,912.00
2019-01-10T10:14:10.851Z,924.00
2019-01-10T10:15:10.748Z,940.00
2019-01-10T10:16:10.784Z,940.00
2019-01-10T10:17:10.743Z,940.00
2019-01-10T10:18:10.776Z,960.00
2019-01-10T10:19:10.808Z,980.00
2019-01-10T10:20:11.602Z,972.00
2019-01-10T10:21:10.675Z,984.00
2019-01-10T10:22:10.656Z,980.00
2019-01-10T10:23:10.650Z,972.00
2019-01-10T10:24:10.775Z,964.00
2019-01-10T10:25:10.834Z,956.00
2019-01-10T10:26:10.598Z,944.00
2019-01-10T10:27:10.660Z,948.00
2019-01-10T10:28:10.560Z,940.00
2019-01-10T10:29:10.557Z,920.00
2019-01-10T10:30:10.530Z,900.00
2019-01-10T10:31:10.508Z,888.00
2019-01-10T10:32:10.495Z,888.00
2019-01-10T10:33:10.538Z,908.00
2019-01-10T10:34:10.530Z,936.00
2019-01-10T10:35:10.515Z,936.00
2019-01-10T10:36:10.552Z,948.00
2019-01-10T10:37:10.452Z,976.00
2019-01-10T10:38:10.435Z,944.00
2019-01-10T10:39:10.426Z,928.00
2019-01-10T10:40:10.461Z,952.00
2019-01-10T10:41:10.424Z,940.00
2019-01-10T10:42:10.404Z,940.00
2019-01-10T10:43:10.378Z,940.00
2019-01-10T10:44:10.460Z,948.00
2019-01-10T10:45:10.385Z,976.00
2019-01-10T10:46:10.381Z,964.00
2019-01-10T10:47:10.351Z,952.00
2019-01-10T10:48:13.561Z,964.00
2019-01-10T10:49:10.363Z,936.00
2019-01-10T10:50:11.880Z,904.00
2019-01-10T10:51:10.298Z,896.00
2019-01-10T10:52:12.502Z,896.00
2019-01-10T10:53:11.271Z,912.00
2019-01-10T10:54:15.279Z,920.00
2019-01-10T10:55:10.248Z,908.00
2019-01-10T10:56:10.242Z,908.00
2019-01-10T10:57:10.239Z,684.00
2019-01-10T10:58:10.203Z,684.00
2019-01-10T10:59:10.212Z,684.00
2019-01-10T11:00:10.174Z,680.00
2019-01-10T11:01:10.231Z,652.00
2019-01-10T11:02:10.157Z,648.00
2019-01-10T11:03:10.167Z,656.00
2019-01-10T11:04:10.276Z,684.00
2019-01-10T11:05:10.261Z,676.00
2019-01-10T11:06:10.131Z,640.00
2019-01-10T11:07:10.107Z,624.00
2019-01-10T11:08:10.104Z,648.00
2019-01-10T11:09:10.084Z,664.00
2019-01-10T11:10:10.082Z,652.00
2019-01-10T11:11:10.074Z,624.00
2019-01-10T11:12:10.047Z,644.00
2019-01-10T11:13:10.065Z,680.00
2019-01-10T11:14:10.058Z,712.00
2019-01-10T11:15:10.014Z,764.00
2019-01-10T11:16:10.655Z,784.00
2019-01-10T11:17:10.054Z,784.00
2019-01-10T11:18:09.983Z,748.00
2019-01-10T11:19:09.987Z,752.00
2019-01-10T11:20:10.045Z,728.00
2019-01-10T11:21:09.967Z,700.00
2019-01-10T11:22:11.844Z,692.00
2019-01-10T11:23:10.830Z,684.00
2019-01-10T11:24:09.910Z,652.00
2019-01-10T11:25:09.915Z,628.00
2019-01-10T11:26:09.890Z,560.00
2019-01-10T11:27:09.875Z,568.00
2019-01-10T11:28:09.899Z,636.00
2019-01-10T11:29:09.882Z,660.00
2019-01-10T11:30:09.848Z,648.00
2019-01-10T11:31:09.851Z,628.00
2019-01-10T11:32:13.320Z,652.00
2019-01-10T11:33:09.818Z,664.00
2019-01-10T11:34:09.814Z,632.00
2019-01-10T11:35:09.787Z,620.00
2019-01-10T11:36:09.967Z,640.00
2019-01-10T11:37:09.834Z,616.00
2019-01-10T11:38:09.767Z,544.00
2019-01-10T11:39:09.759Z,520.00
2019-01-10T11:40:09.778Z,504.00
2019-01-10T11:41:09.771Z,540.00
2019-01-10T11:42:09.716Z,604.00
2019-01-10T11:43:09.735Z,664.00
2019-01-10T11:44:09.700Z,692.00
2019-01-10T11:45:09.718Z,688.00
2019-01-10T11:46:09.707Z,664.00
2019-01-10T11:47:09.806Z,656.00
2019-01-10T11:48:10.087Z,636.00
2019-01-10T11:49:09.716Z,640.00
2019-01-10T11:50:09.798Z,656.00
2019-01-10T11:51:09.655Z,656.00
2019-01-10T11:52:09.642Z,668.00
2019-01-10T11:53:09.671Z,664.00
2019-01-10T11:54:09.563Z,676.00
2019-01-10T11:55:09.567Z,704.00
2019-01-10T11:56:09.579Z,744.00
2019-01-10T11:57:09.538Z,736.00
2019-01-10T11:58:09.535Z,736.00
2019-01-10T11:59:09.530Z,692.00
2019-01-10T12:00:10.468Z,684.00
2019-01-10T12:01:09.566Z,652.00
2019-01-10T12:02:09.481Z,592.00
2019-01-10T12:03:09.545Z,600.00
2019-01-10T12:04:09.526Z,616.00
2019-01-10T12:05:09.501Z,612.00
2019-01-10T12:06:09.489Z,592.00
2019-01-10T12:07:09.489Z,580.00
2019-01-10T12:08:09.780Z,580.00
2019-01-10T12:09:09.412Z,572.00
2019-01-10T12:10:09.396Z,580.00
2019-01-10T12:11:09.414Z,620.00
2019-01-10T12:12:09.368Z,628.00
2019-01-10T12:13:09.401Z,604.00
2019-01-10T12:14:09.334Z,644.00
2019-01-10T12:15:09.564Z,696.00
2019-01-10T12:16:09.519Z,788.00
2019-01-10T12:17:09.321Z,828.00
2019-01-10T12:18:09.418Z,864.00
2019-01-10T12:19:12.249Z,1012.00
2019-01-10T12:20:09.477Z,924.00
2019-01-10T12:21:09.268Z,704.00
2019-01-10T12:22:09.258Z,540.00
2019-01-10T12:23:09.237Z,472.00
2019-01-10T12:24:09.221Z,496.00
2019-01-10T12:25:09.210Z,556.00
2019-01-10T12:26:09.205Z,540.00
2019-01-10T12:27:09.194Z,512.00
2019-01-10T12:28:09.206Z,488.00
2019-01-10T12:29:09.176Z,452.00
2019-01-10T12:30:09.196Z,416.00
2019-01-10T12:31:09.189Z,480.00
2019-01-10T12:32:09.139Z,532.00
2019-01-10T12:33:09.149Z,512.00
2019-01-10T12:34:12.122Z,456.00
2019-01-10T12:35:09.323Z,444.00
2019-01-10T12:36:12.668Z,456.00
2019-01-10T12:37:09.093Z,436.00
2019-01-10T12:38:09.078Z,452.00
2019-01-10T12:39:09.067Z,460.00
2019-01-10T12:40:09.110Z,412.00
2019-01-10T12:41:09.030Z,392.00
2019-01-10T12:42:09.029Z,388.00
2019-01-10T12:43:09.032Z,412.00
2019-01-10T12:44:11.887Z,460.00
2019-01-10T12:45:08.992Z,544.00
2019-01-10T12:46:09.094Z,596.00
2019-01-10T12:47:09.000Z,624.00
2019-01-10T12:48:08.955Z,636.00
2019-01-10T12:49:08.955Z,588.00
2019-01-10T12:50:08.938Z,552.00
2019-01-10T12:51:10.472Z,540.00
2019-01-10T12:52:08.917Z,612.00
2019-01-10T12:53:08.895Z,652.00
2019-01-10T12:54:09.880Z,632.00
2019-01-10T12:55:08.924Z,588.00
2019-01-10T12:56:08.868Z,536.00
2019-01-10T12:57:08.869Z,508.00
2019-01-10T12:58:09.846Z,508.00
2019-01-10T12:59:08.828Z,552.00
2019-01-10T13:00:08.822Z,588.00
2019-01-10T13:01:08.838Z,632.00
2019-01-10T13:02:10.310Z,652.00
2019-01-10T13:03:08.812Z,668.00
2019-01-10T13:04:09.167Z,688.00
2019-01-10T13:05:08.764Z,688.00
2019-01-10T13:06:08.745Z,696.00
2019-01-10T13:07:08.752Z,684.00
2019-01-10T13:08:08.740Z,664.00
2019-01-10T13:09:08.747Z,648.00
2019-01-10T13:10:08.706Z,632.00
2019-01-10T13:11:09.067Z,608.00
2019-01-10T13:12:08.702Z,584.00
2019-01-10T13:13:08.673Z,580.00
2019-01-10T13:14:08.650Z,580.00
2019-01-10T13:15:08.640Z,576.00
2019-01-10T13:16:08.634Z,544.00
2019-01-10T13:17:08.646Z,508.00
2019-01-10T13:18:08.628Z,476.00
2019-01-10T13:19:08.608Z,452.00
2019-01-10T13:20:08.619Z,436.00
2019-01-10T13:21:09.724Z,428.00
2019-01-10T13:22:08.662Z,440.00
2019-01-10T13:23:08.557Z,428.00
2019-01-10T13:24:08.540Z,428.00
2019-01-10T13:25:08.517Z,440.00
2019-01-10T13:26:08.522Z,452.00
2019-01-10T13:27:08.508Z,464.00
2019-01-10T13:28:08.501Z,472.00
2019-01-10T13:29:08.491Z,468.00
2019-01-10T13:30:08.497Z,444.00
2019-01-10T13:31:08.659Z,420.00
2019-01-10T13:32:08.450Z,404.00
2019-01-10T13:33:08.456Z,392.00
2019-01-10T13:34:08.435Z,420.00
2019-01-10T13:35:08.415Z,444.00
2019-01-10T13:36:08.395Z,456.00
2019-01-10T13:37:08.403Z,464.00
2019-01-10T13:38:08.377Z,464.00
2019-01-10T13:39:08.390Z,456.00
2019-01-10T13:40:08.404Z,444.00
2019-01-10T13:41:10.550Z,432.00
2019-01-10T13:42:08.418Z,432.00
2019-01-10T13:43:09.808Z,440.00
2019-01-10T13:44:08.377Z,496.00
2019-01-10T13:45:08.348Z,520.00
2019-01-10T13:46:08.376Z,492.00
2019-01-10T13:47:08.319Z,484.00
2019-01-10T13:48:08.303Z,476.00
2019-01-10T13:49:08.265Z,516.00
2019-01-10T13:50:11.472Z,556.00
2019-01-10T13:51:08.228Z,556.00
2019-01-10T13:52:17.281Z,540.00
2019-01-10T13:53:35.229Z,500.00
2019-01-10T13:54:35.231Z,496.00
2019-01-10T13:55:35.205Z,488.00
2019-01-10T13:56:35.246Z,488.00
2019-01-10T13:57:35.190Z,436.00
2019-01-10T13:58:35.200Z,408.00
2019-01-10T13:59:36.755Z,408.00
2019-01-10T14:00:35.789Z,392.00
2019-01-10T14:01:35.157Z,356.00
2019-01-10T14:02:35.138Z,372.00
2019-01-10T14:03:35.156Z,416.00
2019-01-10T14:04:35.149Z,444.00
2019-01-10T14:05:35.969Z,484.00
2019-01-10T14:06:35.053Z,492.00
2019-01-10T14:07:38.075Z,484.00
2019-01-10T14:08:37.304Z,472.00
2019-01-10T14:09:35.021Z,452.00
2019-01-10T14:10:35.022Z,436.00
2019-01-10T14:11:35.020Z,420.00
2019-01-10T14:12:35.005Z,404.00
2019-01-10T14:13:34.976Z,396.00
2019-01-10T14:14:34.957Z,420.00
2019-01-10T14:15:34.945Z,444.00
2019-01-10T14:16:34.942Z,452.00
2019-01-10T14:18:35.008Z,428.00
2019-01-10T14:19:34.927Z,420.00
2019-01-10T14:20:34.910Z,408.00
2019-01-10T14:21:34.891Z,396.00
2019-01-10T14:22:34.876Z,392.00
2019-01-10T14:23:34.861Z,384.00
2019-01-10T14:24:34.845Z,376.00
2019-01-10T14:25:34.832Z,372.00
2019-01-10T14:26:34.853Z,380.00
2019-01-10T14:27:34.899Z,384.00
2019-01-10T14:28:34.809Z,388.00
2019-01-10T14:29:34.790Z,392.00
2019-01-10T14:30:34.776Z,392.00
2019-01-10T14:31:34.764Z,384.00
2019-01-10T14:32:34.751Z,380.00
2019-01-10T14:33:34.752Z,376.00
2019-01-10T14:34:34.752Z,376.00
2019-01-10T14:35:34.721Z,372.00
2019-01-10T14:36:34.718Z,360.00
2019-01-10T14:37:34.739Z,348.00
2019-01-10T14:38:34.805Z,336.00
2019-01-10T14:39:34.677Z,324.00
2019-01-10T14:40:34.661Z,304.00
2019-01-10T14:41:34.666Z,288.00
2019-01-10T14:42:34.646Z,276.00
2019-01-10T14:43:34.958Z,268.00
2019-01-10T14:44:34.622Z,268.00
2019-01-10T14:45:35.880Z,268.00
2019-01-10T14:46:34.614Z,264.00
2019-01-10T14:47:34.592Z,264.00
2019-01-10T14:48:34.571Z,260.00
2019-01-10T14:49:34.568Z,244.00
2019-01-10T14:50:34.557Z,232.00
2019-01-10T14:51:34.538Z,216.00
2019-01-10T14:52:34.535Z,204.00
2019-01-10T14:53:34.507Z,204.00
2019-01-10T14:54:34.501Z,200.00
2019-01-10T14:55:34.518Z,200.00
2019-01-10T14:56:34.485Z,200.00
2019-01-10T14:57:34.469Z,196.00
2019-01-10T14:58:34.452Z,188.00
2019-01-10T14:59:34.457Z,188.00
2019-01-10T15:00:34.462Z,172.00
2019-01-10T15:01:34.424Z,160.00
2019-01-10T15:02:34.447Z,144.00
2019-01-10T15:03:34.393Z,136.00
2019-01-10T15:04:34.389Z,128.00
2019-01-10T15:05:34.837Z,116.00
2019-01-10T15:06:34.379Z,104.00
2019-01-10T15:07:34.355Z,92.00
2019-01-10T15:08:34.378Z,88.00
2019-01-10T15:09:34.321Z,96.00
2019-01-10T15:10:35.810Z,96.00
2019-01-10T15:11:34.332Z,92.00
2019-01-10T15:12:34.297Z,88.00
2019-01-10T15:13:34.308Z,76.00
2019-01-10T15:14:34.309Z,76.00
2019-01-10T15:15:34.266Z,76.00
2019-01-10T15:16:34.940Z,72.00
2019-01-10T15:17:34.242Z,64.00
2019-01-10T15:18:34.236Z,64.00
2019-01-10T15:19:34.222Z,60.00
2019-01-10T15:20:34.207Z,64.00
2019-01-10T15:21:34.192Z,72.00
2019-01-10T15:22:34.191Z,76.00
2019-01-10T15:23:34.188Z,72.00
2019-01-10T15:24:34.160Z,68.00
2019-01-10T15:25:34.209Z,60.00
2019-01-10T15:26:34.136Z,56.00
2019-01-10T15:27:34.144Z,56.00
2019-01-10T15:28:34.103Z,56.00
2019-01-10T15:29:34.107Z,52.00
2019-01-10T15:30:34.146Z,48.00
2019-01-10T15:31:34.087Z,44.00
2019-01-10T15:32:34.060Z,44.00
2019-01-10T15:33:34.162Z,44.00
2019-01-10T15:34:34.049Z,40.00
2019-01-10T15:35:34.037Z,44.00
2019-01-10T15:36:34.020Z,164.00
2019-01-10T15:37:34.017Z,260.00
2019-01-10T15:38:33.999Z,280.00
2019-01-10T15:39:34.058Z,280.00
2019-01-10T15:40:33.987Z,280.00
2019-01-10T15:41:33.962Z,280.00
2019-01-10T15:42:33.954Z,280.00
2019-01-10T15:43:33.942Z,280.00
2019-01-10T15:44:33.924Z,276.00
2019-01-10T15:45:33.915Z,276.00
2019-01-10T15:46:33.968Z,272.00
2019-01-10T15:47:33.918Z,272.00
2019-01-10T15:48:33.904Z,268.00
2019-01-10T15:49:34.371Z,268.00
2019-01-10T15:50:33.852Z,264.00
2019-01-10T15:51:33.842Z,264.00
2019-01-10T15:52:33.832Z,268.00
2019-01-10T15:53:33.826Z,260.00
2019-01-10T15:54:33.828Z,264.00
2019-01-10T15:55:33.796Z,260.00
2019-01-10T15:56:33.790Z,260.00
2019-01-10T15:57:33.800Z,264.00
2019-01-10T15:58:33.771Z,260.00
2019-01-10T15:59:33.753Z,264.00
2019-01-10T16:00:33.766Z,260.00
2019-01-10T16:01:33.871Z,264.00
2019-01-10T16:02:33.760Z,260.00
2019-01-10T16:03:33.714Z,260.00
2019-01-10T16:04:33.692Z,260.00
2019-01-10T16:05:33.751Z,260.00
2019-01-10T16:06:33.685Z,256.00
2019-01-10T16:07:33.720Z,260.00
2019-01-10T16:08:35.454Z,256.00
2019-01-10T16:09:33.662Z,256.00
2019-01-10T16:10:33.673Z,256.00
2019-01-10T16:11:33.613Z,260.00
2019-01-10T16:12:35.792Z,260.00
2019-01-10T16:13:33.591Z,256.00
2019-01-10T16:14:33.594Z,256.00
2019-01-10T16:15:33.584Z,256.00
2019-01-10T16:16:33.562Z,256.00
2019-01-10T16:17:33.618Z,256.00
2019-01-10T16:18:33.571Z,256.00
2019-01-10T16:19:33.525Z,256.00
2019-01-10T16:20:33.516Z,256.00
2019-01-10T16:21:34.559Z,252.00
2019-01-10T16:22:36.501Z,252.00
2019-01-10T16:23:33.482Z,256.00
2019-01-10T16:24:33.463Z,252.00
2019-01-10T16:25:33.464Z,252.00
2019-01-10T16:26:33.441Z,252.00
2019-01-10T16:27:33.436Z,252.00
2019-01-10T16:28:34.215Z,252.00
2019-01-10T16:29:33.413Z,252.00
2019-01-10T16:30:33.421Z,252.00
2019-01-10T16:31:33.384Z,252.00
2019-01-10T16:34:33.361Z,4.00
2019-01-10T16:35:33.343Z,4.00
2019-01-10T16:36:33.335Z,4.00
2019-01-10T16:37:33.317Z,4.00
2019-01-10T16:38:33.359Z,4.00
2019-01-10T16:39:33.303Z,4.00
2019-01-10T16:40:33.298Z,4.00
2019-01-10T16:41:33.279Z,4.00
2019-01-10T16:42:33.266Z,4.00
2019-01-10T16:43:33.253Z,4.00
2019-01-10T16:44:33.244Z,4.00
2019-01-10T16:45:33.220Z,4.00
2019-01-10T16:46:33.225Z,4.00
2019-01-10T16:47:33.203Z,4.00
2019-01-10T16:48:33.197Z,4.00
